createdAt,value
2018-07-22T00:00:58.960Z,14.90
2018-07-22T00:03:31.057Z,14.77
2018-07-22T00:06:03.184Z,14.93
2018-07-22T00:08:35.330Z,15.17
2018-07-22T00:11:07.442Z,14.33
2018-07-22T00:13:39.566Z,14.27
2018-07-22T00:16:11.714Z,16.33
2018-07-22T00:18:43.983Z,14.90
2018-07-22T00:21:16.162Z,15.07
2018-07-22T00:23:48.291Z,15.53
2018-07-22T00:26:20.417Z,16.97
2018-07-22T00:28:52.491Z,16.30
2018-07-22T00:31:25.763Z,16.13
2018-07-22T00:33:58.129Z,15.93
2018-07-22T00:36:30.254Z,16.33
2018-07-22T00:39:02.511Z,16.20
2018-07-22T00:41:34.631Z,16.27
2018-07-22T00:44:06.737Z,15.93
2018-07-22T00:46:38.880Z,16.73
2018-07-22T00:49:10.988Z,16.53
2018-07-22T00:51:43.052Z,15.27
2018-07-22T00:54:15.114Z,15.83
2018-07-22T00:56:47.171Z,17.27
2018-07-22T00:59:19.270Z,18.10
2018-07-22T01:01:51.315Z,17.03
2018-07-22T01:04:23.358Z,16.33
2018-07-22T01:06:55.470Z,15.63
2018-07-22T01:09:27.580Z,15.77
2018-07-22T01:11:59.742Z,16.17
2018-07-22T01:14:31.922Z,17.47
2018-07-22T01:17:04.084Z,15.87
2018-07-22T01:19:36.179Z,16.47
2018-07-22T01:22:08.319Z,16.27
2018-07-22T01:24:40.422Z,17.50
2018-07-22T01:27:12.582Z,16.30
2018-07-22T01:29:44.741Z,17.13
2018-07-22T01:32:17.877Z,17.57
2018-07-22T01:34:49.948Z,16.93
2018-07-22T01:37:22.032Z,16.93
2018-07-22T01:39:54.104Z,17.70
2018-07-22T01:42:26.370Z,17.43
2018-07-22T01:44:58.466Z,17.27
2018-07-22T01:47:30.534Z,19.20
2018-07-22T01:50:02.670Z,16.43
2018-07-22T01:52:34.806Z,16.77
2018-07-22T01:55:07.220Z,17.40
2018-07-22T01:57:39.247Z,17.53
2018-07-22T02:00:11.329Z,17.50
2018-07-22T02:02:43.717Z,17.47
2018-07-22T02:05:15.809Z,16.90
2018-07-22T02:07:47.877Z,18.07
2018-07-22T02:10:19.996Z,18.93
2018-07-22T02:12:52.008Z,18.50
2018-07-22T02:15:24.094Z,19.70
2018-07-22T02:17:56.057Z,19.57
2018-07-22T02:20:28.018Z,18.80
2018-07-22T02:22:59.959Z,21.13
2018-07-22T02:25:31.914Z,18.97
2018-07-22T02:28:03.936Z,21.50
2018-07-22T02:30:35.915Z,18.77
2018-07-22T02:33:07.847Z,18.40
2018-07-22T02:35:39.815Z,19.83
2018-07-22T02:38:11.755Z,18.47
2018-07-22T02:40:43.735Z,18.07
2018-07-22T02:43:15.730Z,19.07
2018-07-22T02:45:47.714Z,19.07
2018-07-22T02:48:19.656Z,17.87
2018-07-22T02:50:51.619Z,20.80
2018-07-22T02:53:23.576Z,19.77
2018-07-22T02:55:55.514Z,19.73
2018-07-22T02:58:27.457Z,18.50
2018-07-22T03:00:59.410Z,17.83
2018-07-22T03:03:31.457Z,18.63
2018-07-22T03:06:03.336Z,19.23
2018-07-22T03:08:35.306Z,18.40
2018-07-22T03:11:07.310Z,18.60
2018-07-22T03:13:39.389Z,17.30
2018-07-22T03:16:11.332Z,19.57
2018-07-22T03:18:43.291Z,18.10
2018-07-22T03:21:15.236Z,17.90
2018-07-22T03:23:47.245Z,17.63
2018-07-22T03:26:19.190Z,18.50
2018-07-22T03:28:51.118Z,19.93
2018-07-22T03:31:23.098Z,17.80
2018-07-22T03:33:55.076Z,18.70
2018-07-22T03:36:27.030Z,20.83
2018-07-22T03:38:58.960Z,19.73
2018-07-22T03:41:30.925Z,18.90
2018-07-22T03:44:02.899Z,19.40
2018-07-22T03:46:34.932Z,19.87
2018-07-22T03:49:06.875Z,19.13
2018-07-22T03:51:38.898Z,18.63
2018-07-22T03:54:10.844Z,18.30
2018-07-22T03:56:42.823Z,20.10
2018-07-22T03:59:14.779Z,19.43
2018-07-22T04:01:46.730Z,18.77
2018-07-22T04:04:18.659Z,19.57
2018-07-22T04:06:50.621Z,19.20
2018-07-22T04:09:22.559Z,19.00
2018-07-22T04:11:54.554Z,19.20
2018-07-22T04:14:26.519Z,19.33
2018-07-22T04:16:58.515Z,19.23
2018-07-22T04:19:30.468Z,19.10
2018-07-22T04:22:02.463Z,19.67
2018-07-22T04:24:34.422Z,19.63
2018-07-22T04:27:06.438Z,19.10
2018-07-22T04:29:38.393Z,19.60
2018-07-22T04:32:10.371Z,20.10
2018-07-22T04:34:42.324Z,19.87
2018-07-22T04:37:14.279Z,19.40
2018-07-22T04:39:46.253Z,19.70
2018-07-22T04:42:18.217Z,20.87
2018-07-22T04:44:50.174Z,18.60
2018-07-22T04:47:22.161Z,20.80
2018-07-22T04:49:54.118Z,20.43
2018-07-22T04:52:26.115Z,20.80
2018-07-22T04:54:58.104Z,20.50
2018-07-22T04:57:30.080Z,20.23
2018-07-22T05:00:02.046Z,22.43
2018-07-22T05:02:34.010Z,21.73
2018-07-22T05:05:05.998Z,21.83
2018-07-22T05:07:37.952Z,22.53
2018-07-22T05:10:09.926Z,21.27
2018-07-22T05:12:41.898Z,21.33
2018-07-22T05:15:13.835Z,21.80
2018-07-22T05:17:45.847Z,20.93
2018-07-22T05:20:17.802Z,22.90
2018-07-22T05:22:49.755Z,22.50
2018-07-22T05:25:21.754Z,24.40
2018-07-22T05:27:53.999Z,23.40
2018-07-22T05:30:25.935Z,21.03
2018-07-22T05:32:57.923Z,21.13
2018-07-22T05:35:29.866Z,21.60
2018-07-22T05:38:01.815Z,22.43
2018-07-22T05:40:33.794Z,22.03
2018-07-22T05:43:05.779Z,21.20
2018-07-22T05:45:37.751Z,20.43
2018-07-22T05:48:09.731Z,21.60
2018-07-22T05:50:41.807Z,22.50
2018-07-22T05:53:13.805Z,20.77
2018-07-22T05:55:45.807Z,21.47
2018-07-22T05:58:17.766Z,21.43
2018-07-22T06:00:49.718Z,22.17
2018-07-22T06:03:21.723Z,22.00
2018-07-22T06:05:53.711Z,21.80
2018-07-22T06:08:25.690Z,21.47
2018-07-22T06:10:57.655Z,22.87
2018-07-22T06:13:29.651Z,22.93
2018-07-22T06:16:01.586Z,24.63
2018-07-22T06:18:33.527Z,22.63
2018-07-22T06:21:05.655Z,22.13
2018-07-22T06:23:37.618Z,23.07
2018-07-22T06:26:09.544Z,22.80
2018-07-22T06:28:41.508Z,22.57
2018-07-22T06:31:13.472Z,23.00
2018-07-22T06:33:45.435Z,24.20
2018-07-22T06:36:17.390Z,23.63
2018-07-22T06:38:49.504Z,23.73
2018-07-22T06:41:21.560Z,22.50
2018-07-22T06:43:54.418Z,23.30
2018-07-22T06:46:26.354Z,24.63
2018-07-22T06:48:58.334Z,22.23
2018-07-22T06:51:30.290Z,23.40
2018-07-22T06:54:02.250Z,22.00
2018-07-22T06:56:34.254Z,23.00
2018-07-22T06:59:06.205Z,23.67
2018-07-22T07:01:38.152Z,23.10
2018-07-22T07:04:10.198Z,24.13
2018-07-22T07:06:42.164Z,23.87
2018-07-22T07:09:14.139Z,22.33
2018-07-22T07:11:46.144Z,23.10
2018-07-22T07:14:18.110Z,21.97
2018-07-22T07:16:50.059Z,23.00
2018-07-22T07:19:22.067Z,22.30
2018-07-22T07:21:54.080Z,22.37
2018-07-22T07:24:26.079Z,21.20
2018-07-22T07:26:58.103Z,20.50
2018-07-22T07:29:30.130Z,21.60
2018-07-22T07:32:04.235Z,23.17
2018-07-22T07:34:36.198Z,21.53
2018-07-22T07:37:08.175Z,20.70
2018-07-22T07:39:40.164Z,22.73
2018-07-22T07:42:12.165Z,20.00
2018-07-22T07:44:44.174Z,21.23
2018-07-22T07:47:16.130Z,21.90
2018-07-22T07:49:48.183Z,20.07
2018-07-22T07:52:20.166Z,21.67
2018-07-22T07:54:52.202Z,20.77
2018-07-22T07:57:24.171Z,21.77
2018-07-22T07:59:56.170Z,22.10
2018-07-22T08:02:28.159Z,21.07
2018-07-22T08:05:01.164Z,21.40
2018-07-22T08:07:33.145Z,21.40
2018-07-22T08:10:05.682Z,22.47
2018-07-22T08:12:37.690Z,21.43
2018-07-22T08:15:09.659Z,22.43
2018-07-22T08:17:41.630Z,20.50
2018-07-22T08:20:13.595Z,21.23
2018-07-22T08:22:45.587Z,22.87
2018-07-22T08:25:17.599Z,20.87
2018-07-22T08:27:49.814Z,20.57
2018-07-22T08:30:21.863Z,21.53
2018-07-22T08:32:53.751Z,22.80
2018-07-22T08:35:25.714Z,21.37
2018-07-22T08:37:57.671Z,21.10
2018-07-22T08:40:29.673Z,21.60
2018-07-22T08:43:01.658Z,22.20
2018-07-22T08:45:33.610Z,22.87
2018-07-22T08:48:06.198Z,22.40
2018-07-22T08:50:38.199Z,23.47
2018-07-22T08:53:10.193Z,22.07
2018-07-22T08:55:42.152Z,23.50
2018-07-22T08:58:14.117Z,22.40
2018-07-22T09:00:46.099Z,21.30
2018-07-22T09:03:18.048Z,21.97
2018-07-22T09:05:50.027Z,22.40
2018-07-22T09:08:21.993Z,22.97
2018-07-22T09:10:53.988Z,22.00
2018-07-22T09:13:25.978Z,22.07
2018-07-22T09:15:57.983Z,21.37
2018-07-22T09:18:29.942Z,22.40
2018-07-22T09:21:01.938Z,21.90
2018-07-22T09:23:33.895Z,20.20
2018-07-22T09:26:05.867Z,19.77
2018-07-22T09:28:37.850Z,21.00
2018-07-22T09:31:09.842Z,20.30
2018-07-22T09:33:41.823Z,20.47
2018-07-22T09:36:13.990Z,20.80
2018-07-22T09:38:45.826Z,18.63
2018-07-22T09:41:17.827Z,19.63
2018-07-22T09:43:49.803Z,20.43
2018-07-22T09:46:21.783Z,19.93
2018-07-22T09:48:53.748Z,20.10
2018-07-22T09:51:25.738Z,18.97
2018-07-22T09:53:57.726Z,19.33
2018-07-22T09:56:29.715Z,19.80
2018-07-22T09:59:01.700Z,20.03
2018-07-22T10:01:33.688Z,19.40
2018-07-22T10:04:05.681Z,18.13
2018-07-22T10:06:37.696Z,19.53
2018-07-22T10:09:10.758Z,19.40
2018-07-22T10:11:42.755Z,19.03
2018-07-22T10:14:14.729Z,19.00
2018-07-22T10:16:46.749Z,19.90
2018-07-22T10:19:18.734Z,19.30
2018-07-22T10:21:50.755Z,19.43
2018-07-22T10:24:22.741Z,18.60
2018-07-22T10:26:54.751Z,19.47
2018-07-22T10:29:26.736Z,20.00
2018-07-22T10:31:58.731Z,17.60
2018-07-22T10:34:30.731Z,16.50
2018-07-22T10:37:02.766Z,16.13
2018-07-22T10:39:34.749Z,16.67
2018-07-22T10:42:06.760Z,16.90
2018-07-22T10:44:38.748Z,16.80
2018-07-22T10:47:10.755Z,16.10
2018-07-22T10:49:42.750Z,15.20
2018-07-22T10:52:14.953Z,14.80
2018-07-22T10:54:46.934Z,16.30
2018-07-22T10:57:18.938Z,14.90
2018-07-22T10:59:50.948Z,16.20
2018-07-22T11:02:23.066Z,16.83
2018-07-22T11:04:54.999Z,16.07
2018-07-22T11:07:27.002Z,15.63
2018-07-22T11:09:58.966Z,16.40
2018-07-22T11:12:30.964Z,16.00
2018-07-22T11:15:03.343Z,15.57
2018-07-22T11:20:13.982Z,15.60
2018-07-22T11:22:45.987Z,15.60
2018-07-22T11:25:17.942Z,14.40
2018-07-22T11:27:49.932Z,15.47
2018-07-22T11:30:21.904Z,14.10
2018-07-22T11:32:53.886Z,14.43
2018-07-22T11:35:25.848Z,14.97
2018-07-22T11:37:57.835Z,14.80
2018-07-22T11:40:29.836Z,13.67
2018-07-22T11:43:01.813Z,14.03
2018-07-22T11:45:33.784Z,14.63
2018-07-22T11:48:05.768Z,14.03
2018-07-22T11:50:37.764Z,14.60
2018-07-22T11:53:10.071Z,14.90
2018-07-22T11:55:42.044Z,13.30
2018-07-22T11:58:14.054Z,14.37
2018-07-22T12:00:47.759Z,15.47
2018-07-22T12:03:19.947Z,13.50
2018-07-22T12:05:51.925Z,15.17
2018-07-22T12:08:23.919Z,15.20
2018-07-22T12:10:55.898Z,15.63
2018-07-22T12:13:27.895Z,14.23
2018-07-22T12:15:59.843Z,14.20
2018-07-22T12:18:32.266Z,14.47
2018-07-22T12:21:04.246Z,15.97
2018-07-22T12:23:36.231Z,14.53
2018-07-22T12:26:08.214Z,13.50
2018-07-22T12:28:40.182Z,13.50
2018-07-22T12:31:12.133Z,13.90
2018-07-22T12:33:44.090Z,13.07
2018-07-22T12:36:16.044Z,12.70
2018-07-22T12:38:48.027Z,12.90
2018-07-22T12:41:19.998Z,14.67
2018-07-22T12:43:51.979Z,13.63
2018-07-22T12:46:23.946Z,13.73
2018-07-22T12:48:55.907Z,13.07
2018-07-22T12:51:27.858Z,13.23
2018-07-22T12:53:59.834Z,12.40
2018-07-22T12:56:31.827Z,13.10
2018-07-22T12:59:03.805Z,12.50
2018-07-22T13:01:35.773Z,13.07
2018-07-22T13:04:07.811Z,12.80
2018-07-22T13:06:39.776Z,13.73
2018-07-22T13:09:11.743Z,12.50
2018-07-22T13:11:43.755Z,12.73
2018-07-22T13:14:15.755Z,11.87
2018-07-22T13:16:47.715Z,12.40
2018-07-22T13:19:19.674Z,12.47
2018-07-22T13:21:51.622Z,12.10
2018-07-22T13:24:23.581Z,10.70
2018-07-22T13:26:55.540Z,12.30
2018-07-22T13:29:27.521Z,10.13
2018-07-22T13:31:59.842Z,10.10
2018-07-22T13:34:31.847Z,11.23
2018-07-22T13:37:03.894Z,10.00
2018-07-22T13:39:35.858Z,10.23
2018-07-22T13:42:07.824Z,9.70
2018-07-22T13:44:39.890Z,10.10
2018-07-22T13:47:11.844Z,9.00
2018-07-22T13:49:50.703Z,10.13
2018-07-22T13:52:22.699Z,11.03
2018-07-22T13:54:54.807Z,9.83
2018-07-22T13:57:26.990Z,10.10
2018-07-22T13:59:58.984Z,11.00
2018-07-22T14:02:30.938Z,10.87
2018-07-22T14:05:02.992Z,10.20
2018-07-22T14:07:35.815Z,11.67
2018-07-22T14:10:07.803Z,10.03
2018-07-22T14:12:39.787Z,10.47
2018-07-22T14:15:11.813Z,10.50
2018-07-22T14:17:43.879Z,11.57
2018-07-22T14:20:15.815Z,10.10
2018-07-22T14:22:47.794Z,10.50
2018-07-22T14:27:58.681Z,10.50
2018-07-22T14:30:30.678Z,9.37
2018-07-22T14:33:02.676Z,9.60
2018-07-22T14:35:34.678Z,9.13
2018-07-22T14:38:06.710Z,8.80
2018-07-22T14:40:38.770Z,8.43
2018-07-22T14:43:10.704Z,8.53
2018-07-22T14:48:21.485Z,8.30
2018-07-22T14:50:53.457Z,8.17
2018-07-22T14:53:25.458Z,7.90
2018-07-22T14:55:57.438Z,7.97
2018-07-22T14:58:29.411Z,7.70
2018-07-22T15:01:01.420Z,8.87
2018-07-22T15:03:33.415Z,8.77
2018-07-22T15:06:05.440Z,9.03
2018-07-22T15:08:37.427Z,8.10
2018-07-22T15:11:09.434Z,9.60
2018-07-22T15:13:41.420Z,8.53
2018-07-22T15:16:13.434Z,9.33
2018-07-22T15:18:45.430Z,9.93
2018-07-22T15:21:17.411Z,9.80
2018-07-22T15:23:49.423Z,9.07
2018-07-22T15:26:21.479Z,8.47
2018-07-22T15:28:53.471Z,8.90
2018-07-22T15:31:25.463Z,8.80
2018-07-22T15:33:57.452Z,8.63
2018-07-22T15:36:29.448Z,8.47
2018-07-22T15:39:01.478Z,8.17
2018-07-22T15:41:33.471Z,9.37
2018-07-22T15:44:05.439Z,8.17
2018-07-22T15:46:37.631Z,8.20
2018-07-22T15:49:09.615Z,8.80
2018-07-22T15:51:41.600Z,9.03
2018-07-22T15:54:13.566Z,8.93
2018-07-22T15:56:45.542Z,8.53
2018-07-22T15:59:17.526Z,10.63
2018-07-22T16:01:49.524Z,11.63
2018-07-22T16:04:21.512Z,11.80
2018-07-22T16:06:53.502Z,11.20
2018-07-22T16:09:25.460Z,11.87
2018-07-22T16:11:57.455Z,10.20
2018-07-22T16:14:29.418Z,12.13
2018-07-22T16:17:01.388Z,11.10
2018-07-22T16:19:33.326Z,11.50
2018-07-22T16:22:05.268Z,11.30
2018-07-22T16:24:37.246Z,11.30
2018-07-22T16:27:09.216Z,11.50
2018-07-22T16:29:41.540Z,11.70
2018-07-22T16:32:13.489Z,11.63
2018-07-22T16:34:45.476Z,11.77
2018-07-22T16:37:17.469Z,11.57
2018-07-22T16:39:49.437Z,12.33
2018-07-22T16:42:21.444Z,12.00
2018-07-22T16:44:53.403Z,11.10
2018-07-22T16:47:25.372Z,10.87
2018-07-22T16:49:57.323Z,10.60
2018-07-22T16:52:29.295Z,10.73
2018-07-22T16:55:01.252Z,10.00
2018-07-22T16:57:34.023Z,10.93
2018-07-22T17:00:05.991Z,10.47
2018-07-22T17:02:38.022Z,11.07
2018-07-22T17:05:09.937Z,11.23
2018-07-22T17:07:41.936Z,10.77
2018-07-22T17:10:13.911Z,10.40
2018-07-22T17:12:46.210Z,11.07
2018-07-22T17:15:18.208Z,10.80
2018-07-22T17:17:50.203Z,9.70
2018-07-22T17:20:22.257Z,10.87
2018-07-22T17:22:54.208Z,11.70
2018-07-22T17:25:26.195Z,10.90
2018-07-22T17:27:58.175Z,11.23
2018-07-22T17:30:30.147Z,10.70
2018-07-22T17:33:02.134Z,11.27
2018-07-22T17:35:34.107Z,10.90
2018-07-22T17:38:06.115Z,10.90
2018-07-22T17:40:38.087Z,11.30
2018-07-22T17:43:10.088Z,11.63
2018-07-22T17:45:42.063Z,10.60
2018-07-22T17:48:14.066Z,10.60
2018-07-22T17:50:46.078Z,10.67
2018-07-22T17:53:18.063Z,10.97
2018-07-22T17:55:50.039Z,10.80
2018-07-22T17:58:22.040Z,9.33
2018-07-22T18:00:54.040Z,9.83
2018-07-22T18:03:28.119Z,11.00
2018-07-22T18:06:00.506Z,11.40
2018-07-22T18:08:32.623Z,11.50
2018-07-22T18:11:04.820Z,11.80
2018-07-22T18:13:36.904Z,10.70
2018-07-22T18:16:08.944Z,10.93
2018-07-22T18:18:40.956Z,11.50
2018-07-22T18:21:12.954Z,10.50
2018-07-22T18:23:45.008Z,11.10
2018-07-22T18:26:17.016Z,11.53
2018-07-22T18:28:49.040Z,11.27
2018-07-22T18:31:21.038Z,12.33
2018-07-22T18:33:53.033Z,10.80
2018-07-22T18:36:25.039Z,12.20
2018-07-22T18:38:57.068Z,12.80
2018-07-22T18:41:29.116Z,11.87
2018-07-22T18:44:01.115Z,12.50
2018-07-22T18:46:33.105Z,12.20
2018-07-22T18:49:05.111Z,13.30
2018-07-22T18:51:37.167Z,13.73
2018-07-22T18:54:09.190Z,12.83
2018-07-22T18:56:41.195Z,13.00
2018-07-22T18:59:13.182Z,12.57
2018-07-22T19:01:45.223Z,12.80
2018-07-22T19:04:17.207Z,12.87
2018-07-22T19:06:49.239Z,14.37
2018-07-22T19:09:21.222Z,14.00
2018-07-22T19:11:53.298Z,14.27
2018-07-22T19:14:25.363Z,14.53
2018-07-22T19:16:57.407Z,15.33
2018-07-22T19:19:29.432Z,14.67
2018-07-22T19:22:01.519Z,14.17
2018-07-22T19:24:33.546Z,14.10
2018-07-22T19:27:05.587Z,13.63
2018-07-22T19:29:37.689Z,13.93
2018-07-22T19:32:09.720Z,15.00
2018-07-22T19:34:41.795Z,13.57
2018-07-22T19:37:13.851Z,14.17
2018-07-22T19:39:45.857Z,14.10
2018-07-22T19:42:17.930Z,12.97
2018-07-22T19:44:49.956Z,13.93
2018-07-22T19:47:21.950Z,12.63
2018-07-22T19:49:53.994Z,14.20
2018-07-22T19:52:26.060Z,14.53
2018-07-22T19:54:58.091Z,15.33
2018-07-22T19:57:30.110Z,14.77
2018-07-22T20:00:02.236Z,14.73
2018-07-22T20:02:34.340Z,14.90
2018-07-22T20:05:06.422Z,14.10
2018-07-22T20:07:38.533Z,14.40
2018-07-22T20:10:10.567Z,14.33
2018-07-22T20:12:43.218Z,14.10
2018-07-22T20:15:15.164Z,14.27
2018-07-22T20:17:47.197Z,13.63
2018-07-22T20:20:19.266Z,14.10
2018-07-22T20:22:51.277Z,14.13
2018-07-22T20:25:23.352Z,14.37
2018-07-22T20:27:55.362Z,14.40
2018-07-22T20:30:27.412Z,16.13
2018-07-22T20:32:59.467Z,15.47
2018-07-22T20:35:31.525Z,14.93
2018-07-22T20:38:03.906Z,14.77
2018-07-22T20:40:35.977Z,15.70
2018-07-22T20:43:08.013Z,14.83
2018-07-22T20:45:40.098Z,14.20
2018-07-22T20:48:12.087Z,15.53
2018-07-22T20:50:44.116Z,16.33
2018-07-22T20:53:16.151Z,15.80
2018-07-22T20:55:48.152Z,15.33
2018-07-22T20:58:20.278Z,16.53
2018-07-22T21:00:52.328Z,16.20
2018-07-22T21:03:24.343Z,16.20
2018-07-22T21:05:56.396Z,15.97
2018-07-22T21:08:28.379Z,17.20
2018-07-22T21:11:01.558Z,16.30
2018-07-22T21:13:33.587Z,17.73
2018-07-22T21:16:05.659Z,17.63
2018-07-22T21:18:37.709Z,17.83
2018-07-22T21:21:09.731Z,15.73
2018-07-22T21:23:41.827Z,18.80
2018-07-22T21:26:13.841Z,18.30
2018-07-22T21:28:45.870Z,18.77
2018-07-22T21:31:17.914Z,19.13
2018-07-22T21:33:49.966Z,18.87
2018-07-22T21:36:22.049Z,20.00
2018-07-22T21:38:54.086Z,19.33
2018-07-22T21:41:26.155Z,19.87
2018-07-22T21:43:58.177Z,20.70
2018-07-22T21:46:30.218Z,20.50
2018-07-22T21:49:02.334Z,20.00
2018-07-22T21:51:34.364Z,19.00
2018-07-22T21:54:06.527Z,17.87
2018-07-22T21:56:38.548Z,18.70
2018-07-22T21:59:10.611Z,19.17
2018-07-22T22:01:42.791Z,20.63
2018-07-22T22:04:14.849Z,20.80
2018-07-22T22:06:46.896Z,19.43
2018-07-22T22:09:18.954Z,20.40
2018-07-22T22:11:51.039Z,21.50
2018-07-22T22:14:23.111Z,21.20
2018-07-22T22:16:55.196Z,21.43
2018-07-22T22:19:27.366Z,21.93
2018-07-22T22:21:59.503Z,22.30
2018-07-22T22:24:31.571Z,23.63
2018-07-22T22:27:03.767Z,22.17
2018-07-22T22:29:35.803Z,23.27
2018-07-22T22:32:08.093Z,23.80
2018-07-22T22:34:40.131Z,23.30
2018-07-22T22:37:12.183Z,23.80
2018-07-22T22:39:44.232Z,24.33
2018-07-22T22:42:16.314Z,23.40
2018-07-22T22:44:48.446Z,25.20
2018-07-22T22:47:20.562Z,25.00
2018-07-22T22:49:52.673Z,24.13
2018-07-22T22:52:24.810Z,24.47
2018-07-22T22:54:57.063Z,24.80
2018-07-22T22:57:29.150Z,25.57
2018-07-22T23:00:01.378Z,26.00
2018-07-22T23:02:33.455Z,25.93
2018-07-22T23:05:06.970Z,27.37
2018-07-22T23:07:39.020Z,28.43
2018-07-22T23:10:11.064Z,25.70
2018-07-22T23:12:43.180Z,27.80
2018-07-22T23:15:15.197Z,27.00
2018-07-22T23:17:47.257Z,27.50
2018-07-22T23:20:19.323Z,25.87
2018-07-22T23:22:51.426Z,26.87
2018-07-22T23:25:23.455Z,26.03
2018-07-22T23:27:55.620Z,26.47
2018-07-22T23:30:27.815Z,25.00
2018-07-22T23:32:59.979Z,27.07
2018-07-22T23:35:32.048Z,26.17
2018-07-22T23:38:04.500Z,26.57
2018-07-22T23:40:36.553Z,25.27
2018-07-22T23:43:08.659Z,26.40
2018-07-22T23:45:40.731Z,24.43
2018-07-22T23:48:12.832Z,24.47
2018-07-22T23:50:44.949Z,24.17
2018-07-22T23:53:17.065Z,22.97
2018-07-22T23:55:49.150Z,22.87
2018-07-22T23:58:21.280Z,23.27
